Bend, OR

4:50 AM PDT on October 24, 2014 (GMT -0700)
Lava Ridges | Change Station
CLOSE
Current Station
Personal Weather Station
Location: Bend, OR
Elevation: 3465 ft
Nearby Weather Stations
Active Advisory: Special Statement

Elev 3465 ft 44.09 °N, 121.28 °W | Updated 11 seconds ago

Mostly Cloudy
Mostly Cloudy
45.1 °F
Feels Like 45 °F
N
0.0
Wind Variable Wind from West
Gusts 0.0 mph

Today
High -- | Low -- °F
--% Chance of Precip.
Yesterday
High -- | Low -- °F
Precip. -- in
7:31 AM 6:06 PM
New Moon, 0% visible
Pressure 30.05 in
Visibility 10.0 miles
Clouds Mostly Cloudy 4000 ft
Windchill 45 °F
Dew Point 41 °F
Humidity 86%
Rainfall 0.00 in
Snow Depth 0 in
UV 0 out of 12
Pollen .30 out of 12
Air Quality Not available.
Flu Activity Sporadic
METAR KBDN 241135Z AUTO 08004KT 10SM BKN040 07/05 A3005 RMK AO2

More Conditions Fewer Conditions

Pressure 30.05 in
Visibility 10.0 miles
Clouds Mostly Cloudy 4000 ft
Windchill 45 °F
Dew Point 41 °F
Humidity 86%
Rainfall 0.00 in
Snow Depth 0 in
UV 0 out of 12
Pollen .30 out of 12
Air Quality Not available.
Flu Activity Sporadic
METAR KBDN 241135Z AUTO 08004KT 10SM BKN040 07/05 A3005 RMK AO2

More Conditions Fewer Conditions

10-Day Weather Forecast

Almanac

Astronomy

Oct. 24, 2014 Rise Set
Actual Time 7:31 AM PDT 6:06 PM PDT
Civil Twilight 7:01 AM PDT 6:36 PM PDT
Nautical Twilight 6:28 AM PDT 7:09 PM PDT
Astronomical Twilight 5:54 AM PDT 7:43 PM PDT
Moon 8:16 AM PDT 6:48 PM PDT
Length of Visible Light 11h 34m
Length of Day
10h 35m
Tomorrow will be 2m 50s shorter.
New Moon, 0% of the Moon is Illuminated
Today
New Moon
Oct 30
First Quarter
Nov 6
Full
Nov 14
Last Quarter
Nov 22
New

Today's Extremes

State Highs State Lows

Community

WunderPhotos

Upload Photos

1,764,526 photos uploaded!

Nearby

Snow Depth

Station Depth Elevation
Three Creeks Meadow 0 in 5650 ft
Mckenzie 0 in 4800 ft
Hogg Pass 1 in 4760 ft
Irish Taylor 0 in 5500 ft
Roaring River 0 in 4900 ft

Earthquake Activity

City Distance Mag. Time & Date
No recent earthquake activity has been reported nearby.
Minimum magnitude displayed is 2.5.

Coastal Water Temperatures

Place Temperature
No Stations Reporting

Nearby Weather Stations